Quick Links (Output Below):   Max & Min Temps   /   Climate Reports   /   Zone Forecasts
River Forecasts   /   Forestry Forecasts   /   Aviation Forecasts   /   Radars   /   Features

Terminal Aerodrome Forecast (Arkadelphia)

Pick a Site:
Arkadelphia | El Dorado | Fayetteville | Fort Smith | Harrison | Highfill | Hot Springs | Jonesboro
Little Rock | Monticello | Mountain Home | Pine Bluff | Texarkana
 Forecast 

KADF 252320Z 2600/2624 VRB03KT P6SM FEW250
     FM260700 16006KT P6SM SCT080 BKN120
     FM261600 30010G18KT P6SM SCT250=


 Latest METARs (Observations) 
How to Decode METARs
03Z KADF 260256Z AUTO 00000KT 10SM CLR 02/02 A3020 RMK AO2 51004
         T00220022 SLP241
         
02Z KADF 260156Z AUTO 00000KT 10SM CLR 03/03 A3020 RMK AO2 T00330027
         SLP242
         
01Z KADF 260056Z AUTO 00000KT 10SM CLR 04/03 A3020 RMK AO2 T00440033
         SLP241
         
00Z KADF 252356Z AUTO 00000KT 10SM CLR 06/04 A3019 RMK AO2 53004
         T00610038 10138 20061 SLP238
         
***** Today's Observations (Above) *****


23Z KADF 252256Z AUTO 00000KT 10SM CLR 12/01 A3018 RMK AO2 T01220005
         SLP235
         
22Z KADF 252156Z AUTO VRB03KT 10SM CLR 14/M03 A3017 RMK AO2 T01381033
         SLP232
         
21Z KADF 252056Z AUTO 34007KT 10SM CLR 14/M02 A3017 RMK AO2 56028
         T01381022 SLP232
         
20Z KADF 251956Z AUTO 00000KT 10SM CLR 13/M05 A3018 RMK AO2 T01331050
         SLP235
         
19Z KADF 251856Z AUTO VRB03KT 10SM CLR 13/M04 A3021 RMK AO2 T01271044
         SLP247
         
18Z KADF 251756Z AUTO VRB06KT 10SM CLR 12/M03 A3025 RMK AO2 58014
         T01221033 10122 21022 SLP260
         
***** Yesterday's Observations (Above) *****


Back to Main Page
http://www.srh.noaa.gov/lzk/qfcst.php

USA.gov is the U.S. government's official web portal to all federal, state and local government web resources and services.